sensor_id;sensor_type;location;lat;lon;timestamp;temperature;humidity
8475;DHT22;4274;52.012;8.448;2022-10-19T00:02:04;10.30;99.90
8475;DHT22;4274;52.012;8.448;2022-10-19T00:04:29;10.30;99.90
8475;DHT22;4274;52.012;8.448;2022-10-19T00:06:55;10.30;99.90
8475;DHT22;4274;52.012;8.448;2022-10-19T00:09:20;10.20;99.90
8475;DHT22;4274;52.012;8.448;2022-10-19T00:11:49;10.20;99.90
8475;DHT22;4274;52.012;8.448;2022-10-19T00:14:17;10.20;99.90
8475;DHT22;4274;52.012;8.448;2022-10-19T00:16:44;10.20;99.90
8475;DHT22;4274;52.012;8.448;2022-10-19T00:19:16;10.10;99.90
8475;DHT22;4274;52.012;8.448;2022-10-19T00:21:42;10.10;99.90
8475;DHT22;4274;52.012;8.448;2022-10-19T00:24:08;10.00;99.90
8475;DHT22;4274;52.012;8.448;2022-10-19T00:26:33;10.00;99.90
8475;DHT22;4274;52.012;8.448;2022-10-19T00:29:00;10.00;99.90
8475;DHT22;4274;52.012;8.448;2022-10-19T00:31:26;10.00;99.90
8475;DHT22;4274;52.012;8.448;2022-10-19T00:33:54;10.00;99.90
8475;DHT22;4274;52.012;8.448;2022-10-19T00:36:22;10.00;99.90
8475;DHT22;4274;52.012;8.448;2022-10-19T00:38:48;10.00;99.90
8475;DHT22;4274;52.012;8.448;2022-10-19T00:41:15;10.00;99.90
8475;DHT22;4274;52.012;8.448;2022-10-19T00:43:59;9.90;99.90
8475;DHT22;4274;52.012;8.448;2022-10-19T00:46:27;9.80;99.90
8475;DHT22;4274;52.012;8.448;2022-10-19T00:48:54;9.80;99.90
8475;DHT22;4274;52.012;8.448;2022-10-19T00:51:22;9.70;99.90
8475;DHT22;4274;52.012;8.448;2022-10-19T00:53:48;9.60;99.90
8475;DHT22;4274;52.012;8.448;2022-10-19T00:56:14;9.50;99.90
8475;DHT22;4274;52.012;8.448;2022-10-19T00:58:42;9.40;99.90
8475;DHT22;4274;52.012;8.448;2022-10-19T01:01:10;9.30;99.90
8475;DHT22;4274;52.012;8.448;2022-10-19T01:03:38;9.30;99.90
8475;DHT22;4274;52.012;8.448;2022-10-19T01:06:04;9.20;99.90
8475;DHT22;4274;52.012;8.448;2022-10-19T01:08:31;9.20;99.90
8475;DHT22;4274;52.012;8.448;2022-10-19T01:11:04;9.10;99.90
8475;DHT22;4274;52.012;8.448;2022-10-19T01:14:11;9.10;99.90
8475;DHT22;4274;52.012;8.448;2022-10-19T01:16:46;9.10;99.90
8475;DHT22;4274;52.012;8.448;2022-10-19T01:25:20;9.00;99.90
8475;DHT22;4274;52.012;8.448;2022-10-19T01:27:59;9.00;99.90
8475;DHT22;4274;52.012;8.448;2022-10-19T01:30:41;8.90;99.90
8475;DHT22;4274;52.012;8.448;2022-10-19T01:36:30;8.80;99.90
8475;DHT22;4274;52.012;8.448;2022-10-19T01:39:18;8.80;99.90
8475;DHT22;4274;52.012;8.448;2022-10-19T01:45:14;8.50;99.90
8475;DHT22;4274;52.012;8.448;2022-10-19T01:48:29;8.30;99.90
8475;DHT22;4274;52.012;8.448;2022-10-19T01:51:02;8.20;99.90
8475;DHT22;4274;52.012;8.448;2022-10-19T01:53:33;8.10;99.90
8475;DHT22;4274;52.012;8.448;2022-10-19T01:56:00;8.10;99.90
8475;DHT22;4274;52.012;8.448;2022-10-19T01:58:30;8.00;99.90
8475;DHT22;4274;52.012;8.448;2022-10-19T02:00:58;8.00;99.90
8475;DHT22;4274;52.012;8.448;2022-10-19T02:03:24;7.90;99.90
8475;DHT22;4274;52.012;8.448;2022-10-19T02:05:52;7.90;99.90
8475;DHT22;4274;52.012;8.448;2022-10-19T02:08:26;7.90;99.90
8475;DHT22;4274;52.012;8.448;2022-10-19T02:10:53;7.90;99.90
8475;DHT22;4274;52.012;8.448;2022-10-19T02:13:20;7.90;99.90
8475;DHT22;4274;52.012;8.448;2022-10-19T02:15:50;7.90;99.90
8475;DHT22;4274;52.012;8.448;2022-10-19T02:18:22;7.80;99.90
8475;DHT22;4274;52.012;8.448;2022-10-19T02:20:49;7.80;99.90
8475;DHT22;4274;52.012;8.448;2022-10-19T02:23:17;7.70;99.90
8475;DHT22;4274;52.012;8.448;2022-10-19T02:25:44;7.70;99.90
8475;DHT22;4274;52.012;8.448;2022-10-19T02:28:10;7.60;99.90
8475;DHT22;4274;52.012;8.448;2022-10-19T02:30:36;7.60;99.90
8475;DHT22;4274;52.012;8.448;2022-10-19T02:33:02;7.60;99.90
8475;DHT22;4274;52.012;8.448;2022-10-19T02:35:28;7.50;99.90
8475;DHT22;4274;52.012;8.448;2022-10-19T02:37:54;7.40;99.90
8475;DHT22;4274;52.012;8.448;2022-10-19T02:40:23;7.40;99.90
8475;DHT22;4274;52.012;8.448;2022-10-19T02:42:59;7.30;99.90
8475;DHT22;4274;52.012;8.448;2022-10-19T02:45:35;7.20;99.90
8475;DHT22;4274;52.012;8.448;2022-10-19T02:48:06;7.20;99.90
8475;DHT22;4274;52.012;8.448;2022-10-19T02:50:34;7.30;99.90
8475;DHT22;4274;52.012;8.448;2022-10-19T02:53:00;7.20;99.90
8475;DHT22;4274;52.012;8.448;2022-10-19T02:55:26;7.10;99.90
8475;DHT22;4274;52.012;8.448;2022-10-19T02:57:52;7.10;99.90
8475;DHT22;4274;52.012;8.448;2022-10-19T03:00:18;7.00;99.90
8475;DHT22;4274;52.012;8.448;2022-10-19T03:02:43;7.00;99.90
8475;DHT22;4274;52.012;8.448;2022-10-19T03:05:09;7.00;99.90
8475;DHT22;4274;52.012;8.448;2022-10-19T03:07:35;7.00;99.90
8475;DHT22;4274;52.012;8.448;2022-10-19T03:10:00;7.00;99.90
8475;DHT22;4274;52.012;8.448;2022-10-19T03:12:26;6.90;99.90
8475;DHT22;4274;52.012;8.448;2022-10-19T03:14:52;6.90;99.90
8475;DHT22;4274;52.012;8.448;2022-10-19T03:17:17;6.90;99.90
8475;DHT22;4274;52.012;8.448;2022-10-19T03:19:43;6.80;99.90
8475;DHT22;4274;52.012;8.448;2022-10-19T03:22:09;6.80;99.90
8475;DHT22;4274;52.012;8.448;2022-10-19T03:24:35;6.80;99.90
8475;DHT22;4274;52.012;8.448;2022-10-19T03:27:00;6.70;99.90
8475;DHT22;4274;52.012;8.448;2022-10-19T03:29:26;6.70;99.90
8475;DHT22;4274;52.012;8.448;2022-10-19T03:31:52;6.60;99.90
8475;DHT22;4274;52.012;8.448;2022-10-19T03:34:17;6.60;99.90
8475;DHT22;4274;52.012;8.448;2022-10-19T03:36:43;6.60;99.90
8475;DHT22;4274;52.012;8.448;2022-10-19T03:39:14;6.60;99.90
8475;DHT22;4274;52.012;8.448;2022-10-19T03:41:40;6.70;99.90
8475;DHT22;4274;52.012;8.448;2022-10-19T03:44:07;6.70;99.90
8475;DHT22;4274;52.012;8.448;2022-10-19T03:46:33;6.80;99.90
8475;DHT22;4274;52.012;8.448;2022-10-19T03:49:00;6.80;99.90
8475;DHT22;4274;52.012;8.448;2022-10-19T03:51:28;6.90;99.90
8475;DHT22;4274;52.012;8.448;2022-10-19T03:53:59;7.00;99.90
8475;DHT22;4274;52.012;8.448;2022-10-19T03:56:27;7.10;99.90
8475;DHT22;4274;52.012;8.448;2022-10-19T03:58:54;7.10;99.90
8475;DHT22;4274;52.012;8.448;2022-10-19T04:01:23;7.20;99.90
8475;DHT22;4274;52.012;8.448;2022-10-19T04:03:56;7.20;99.90
8475;DHT22;4274;52.012;8.448;2022-10-19T04:06:25;7.30;99.90
8475;DHT22;4274;52.012;8.448;2022-10-19T04:08:52;7.30;99.90
8475;DHT22;4274;52.012;8.448;2022-10-19T04:11:20;7.40;99.90
8475;DHT22;4274;52.012;8.448;2022-10-19T04:13:50;7.50;99.90
8475;DHT22;4274;52.012;8.448;2022-10-19T04:16:17;7.60;99.90
8475;DHT22;4274;52.012;8.448;2022-10-19T04:18:42;7.60;99.90
8475;DHT22;4274;52.012;8.448;2022-10-19T04:21:28;7.70;99.90
8475;DHT22;4274;52.012;8.448;2022-10-19T04:24:00;7.70;99.90
8475;DHT22;4274;52.012;8.448;2022-10-19T04:26:26;7.70;99.90
8475;DHT22;4274;52.012;8.448;2022-10-19T04:28:52;7.80;99.90
8475;DHT22;4274;52.012;8.448;2022-10-19T04:31:18;7.90;99.90
8475;DHT22;4274;52.012;8.448;2022-10-19T04:33:43;7.90;99.90
8475;DHT22;4274;52.012;8.448;2022-10-19T04:36:10;8.00;99.90
8475;DHT22;4274;52.012;8.448;2022-10-19T04:38:37;8.00;99.90
8475;DHT22;4274;52.012;8.448;2022-10-19T04:41:07;8.00;99.90
8475;DHT22;4274;52.012;8.448;2022-10-19T04:43:34;8.10;99.90
8475;DHT22;4274;52.012;8.448;2022-10-19T04:46:17;8.10;99.90
8475;DHT22;4274;52.012;8.448;2022-10-19T04:48:43;8.20;99.90
8475;DHT22;4274;52.012;8.448;2022-10-19T04:51:10;8.20;99.90
8475;DHT22;4274;52.012;8.448;2022-10-19T04:53:37;8.10;99.90
8475;DHT22;4274;52.012;8.448;2022-10-19T04:56:05;8.10;99.90
8475;DHT22;4274;52.012;8.448;2022-10-19T04:58:31;8.10;99.90
8475;DHT22;4274;52.012;8.448;2022-10-19T05:00:57;8.10;99.90
8475;DHT22;4274;52.012;8.448;2022-10-19T05:03:22;8.10;99.90
8475;DHT22;4274;52.012;8.448;2022-10-19T05:05:48;8.10;99.90
8475;DHT22;4274;52.012;8.448;2022-10-19T05:08:14;8.00;99.90
8475;DHT22;4274;52.012;8.448;2022-10-19T05:10:40;8.00;99.90
8475;DHT22;4274;52.012;8.448;2022-10-19T05:13:05;8.00;99.90
8475;DHT22;4274;52.012;8.448;2022-10-19T05:15:31;7.90;99.90
8475;DHT22;4274;52.012;8.448;2022-10-19T05:17:57;7.90;99.90
8475;DHT22;4274;52.012;8.448;2022-10-19T05:20:23;8.00;99.90
8475;DHT22;4274;52.012;8.448;2022-10-19T05:22:49;8.00;99.90
8475;DHT22;4274;52.012;8.448;2022-10-19T05:25:14;8.00;99.90
8475;DHT22;4274;52.012;8.448;2022-10-19T05:27:40;8.00;99.90
8475;DHT22;4274;52.012;8.448;2022-10-19T05:30:06;8.00;99.90
8475;DHT22;4274;52.012;8.448;2022-10-19T05:32:33;8.10;99.90
8475;DHT22;4274;52.012;8.448;2022-10-19T05:34:58;8.10;99.90
8475;DHT22;4274;52.012;8.448;2022-10-19T05:37:24;8.10;99.90
8475;DHT22;4274;52.012;8.448;2022-10-19T05:39:50;8.10;99.90
8475;DHT22;4274;52.012;8.448;2022-10-19T05:42:16;8.20;99.90
8475;DHT22;4274;52.012;8.448;2022-10-19T05:44:41;8.30;99.90
8475;DHT22;4274;52.012;8.448;2022-10-19T05:47:07;8.30;99.90
8475;DHT22;4274;52.012;8.448;2022-10-19T05:49:33;8.40;99.90
8475;DHT22;4274;52.012;8.448;2022-10-19T05:51:58;8.40;99.90
8475;DHT22;4274;52.012;8.448;2022-10-19T05:54:24;8.40;99.90
8475;DHT22;4274;52.012;8.448;2022-10-19T05:56:49;8.40;99.90
8475;DHT22;4274;52.012;8.448;2022-10-19T05:59:17;8.50;99.90
8475;DHT22;4274;52.012;8.448;2022-10-19T06:01:43;8.50;99.90
8475;DHT22;4274;52.012;8.448;2022-10-19T06:04:09;8.60;99.90
8475;DHT22;4274;52.012;8.448;2022-10-19T06:06:35;8.50;99.90
8475;DHT22;4274;52.012;8.448;2022-10-19T06:09:02;8.50;99.90
8475;DHT22;4274;52.012;8.448;2022-10-19T06:11:33;8.60;99.90
8475;DHT22;4274;52.012;8.448;2022-10-19T06:14:00;8.60;99.90
8475;DHT22;4274;52.012;8.448;2022-10-19T06:16:29;8.60;99.90
8475;DHT22;4274;52.012;8.448;2022-10-19T06:18:55;8.60;99.90
8475;DHT22;4274;52.012;8.448;2022-10-19T06:21:24;8.60;99.90
8475;DHT22;4274;52.012;8.448;2022-10-19T06:23:51;8.70;99.90
8475;DHT22;4274;52.012;8.448;2022-10-19T06:26:17;8.70;99.90
8475;DHT22;4274;52.012;8.448;2022-10-19T06:28:43;8.80;99.90
8475;DHT22;4274;52.012;8.448;2022-10-19T06:31:09;8.80;99.90
8475;DHT22;4274;52.012;8.448;2022-10-19T06:33:35;8.80;99.90
8475;DHT22;4274;52.012;8.448;2022-10-19T06:36:09;8.90;99.90
8475;DHT22;4274;52.012;8.448;2022-10-19T06:38:36;8.90;99.90
8475;DHT22;4274;52.012;8.448;2022-10-19T06:41:02;9.00;99.90
8475;DHT22;4274;52.012;8.448;2022-10-19T06:43:28;9.10;99.90
8475;DHT22;4274;52.012;8.448;2022-10-19T06:45:53;9.10;99.90
8475;DHT22;4274;52.012;8.448;2022-10-19T06:48:19;9.10;99.90
8475;DHT22;4274;52.012;8.448;2022-10-19T06:50:45;9.20;99.90
8475;DHT22;4274;52.012;8.448;2022-10-19T06:53:10;9.20;99.90
8475;DHT22;4274;52.012;8.448;2022-10-19T06:55:36;9.20;99.90
8475;DHT22;4274;52.012;8.448;2022-10-19T06:58:02;9.20;99.90
8475;DHT22;4274;52.012;8.448;2022-10-19T07:00:28;9.40;99.90
8475;DHT22;4274;52.012;8.448;2022-10-19T07:02:55;9.40;99.90
8475;DHT22;4274;52.012;8.448;2022-10-19T07:05:21;9.50;99.90
8475;DHT22;4274;52.012;8.448;2022-10-19T07:07:46;9.50;99.90
8475;DHT22;4274;52.012;8.448;2022-10-19T07:10:12;9.60;99.90
8475;DHT22;4274;52.012;8.448;2022-10-19T07:12:38;9.70;99.90
8475;DHT22;4274;52.012;8.448;2022-10-19T07:15:04;9.80;99.90
8475;DHT22;4274;52.012;8.448;2022-10-19T07:17:29;9.90;99.90
8475;DHT22;4274;52.012;8.448;2022-10-19T07:19:55;9.90;99.90
8475;DHT22;4274;52.012;8.448;2022-10-19T07:22:20;9.90;99.90
8475;DHT22;4274;52.012;8.448;2022-10-19T07:24:46;10.00;99.90
8475;DHT22;4274;52.012;8.448;2022-10-19T07:27:12;10.00;99.90
8475;DHT22;4274;52.012;8.448;2022-10-19T07:29:37;10.00;99.90
8475;DHT22;4274;52.012;8.448;2022-10-19T07:32:03;10.10;99.90
8475;DHT22;4274;52.012;8.448;2022-10-19T07:34:29;10.10;99.90
8475;DHT22;4274;52.012;8.448;2022-10-19T07:36:54;10.10;99.90
8475;DHT22;4274;52.012;8.448;2022-10-19T07:39:20;10.20;99.90
8475;DHT22;4274;52.012;8.448;2022-10-19T07:41:46;10.30;99.90
8475;DHT22;4274;52.012;8.448;2022-10-19T07:44:12;10.30;99.90
8475;DHT22;4274;52.012;8.448;2022-10-19T07:46:39;10.40;99.90
8475;DHT22;4274;52.012;8.448;2022-10-19T07:49:07;10.50;99.90
8475;DHT22;4274;52.012;8.448;2022-10-19T07:51:35;10.60;99.90
8475;DHT22;4274;52.012;8.448;2022-10-19T07:54:01;10.70;99.90
8475;DHT22;4274;52.012;8.448;2022-10-19T07:56:28;10.70;99.90
8475;DHT22;4274;52.012;8.448;2022-10-19T07:58:55;10.90;99.90
8475;DHT22;4274;52.012;8.448;2022-10-19T08:01:23;11.00;99.90
8475;DHT22;4274;52.012;8.448;2022-10-19T08:03:52;11.10;99.90
8475;DHT22;4274;52.012;8.448;2022-10-19T08:06:18;11.20;99.90
8475;DHT22;4274;52.012;8.448;2022-10-19T08:08:45;11.20;99.90
8475;DHT22;4274;52.012;8.448;2022-10-19T08:11:19;11.30;99.90
8475;DHT22;4274;52.012;8.448;2022-10-19T08:13:45;11.40;99.90
8475;DHT22;4274;52.012;8.448;2022-10-19T08:16:35;11.60;99.90
8475;DHT22;4274;52.012;8.448;2022-10-19T08:19:09;11.90;99.90
8475;DHT22;4274;52.012;8.448;2022-10-19T08:21:37;12.00;99.90
8475;DHT22;4274;52.012;8.448;2022-10-19T08:24:04;12.20;99.90
8475;DHT22;4274;52.012;8.448;2022-10-19T08:26:33;12.30;99.90
8475;DHT22;4274;52.012;8.448;2022-10-19T08:29:00;12.40;99.90
8475;DHT22;4274;52.012;8.448;2022-10-19T08:31:26;12.50;99.90
8475;DHT22;4274;52.012;8.448;2022-10-19T08:33:52;12.60;99.90
8475;DHT22;4274;52.012;8.448;2022-10-19T08:36:18;12.80;99.90
8475;DHT22;4274;52.012;8.448;2022-10-19T08:38:44;13.00;99.90
8475;DHT22;4274;52.012;8.448;2022-10-19T08:49:46;13.60;99.90
8475;DHT22;4274;52.012;8.448;2022-10-19T08:52:18;13.70;99.90
8475;DHT22;4274;52.012;8.448;2022-10-19T08:54:56;13.80;99.90
8475;DHT22;4274;52.012;8.448;2022-10-19T08:58:02;13.80;99.90
8475;DHT22;4274;52.012;8.448;2022-10-19T09:00:44;13.70;99.90
8475;DHT22;4274;52.012;8.448;2022-10-19T09:03:46;13.60;99.90
8475;DHT22;4274;52.012;8.448;2022-10-19T09:08:53;13.50;99.90
8475;DHT22;4274;52.012;8.448;2022-10-19T09:11:31;13.40;99.90
8475;DHT22;4274;52.012;8.448;2022-10-19T09:14:12;13.40;99.90
8475;DHT22;4274;52.012;8.448;2022-10-19T09:16:39;13.30;99.90
8475;DHT22;4274;52.012;8.448;2022-10-19T09:19:20;13.30;99.90
8475;DHT22;4274;52.012;8.448;2022-10-19T09:21:56;13.30;99.90
8475;DHT22;4274;52.012;8.448;2022-10-19T09:24:48;13.50;99.90
8475;DHT22;4274;52.012;8.448;2022-10-19T09:27:28;13.80;99.90
8475;DHT22;4274;52.012;8.448;2022-10-19T09:30:01;13.80;99.90
8475;DHT22;4274;52.012;8.448;2022-10-19T09:32:36;13.80;99.90
8475;DHT22;4274;52.012;8.448;2022-10-19T09:35:33;13.60;99.90
8475;DHT22;4274;52.012;8.448;2022-10-19T09:38:00;13.50;99.90
8475;DHT22;4274;52.012;8.448;2022-10-19T09:40:29;13.50;99.90
8475;DHT22;4274;52.012;8.448;2022-10-19T09:42:55;13.50;99.90
8475;DHT22;4274;52.012;8.448;2022-10-19T09:45:31;13.40;99.90
8475;DHT22;4274;52.012;8.448;2022-10-19T09:47:57;13.50;99.90
8475;DHT22;4274;52.012;8.448;2022-10-19T09:50:25;13.60;99.90
8475;DHT22;4274;52.012;8.448;2022-10-19T09:52:55;13.70;99.90
8475;DHT22;4274;52.012;8.448;2022-10-19T09:55:37;13.70;99.90
8475;DHT22;4274;52.012;8.448;2022-10-19T09:58:13;13.60;99.90
8475;DHT22;4274;52.012;8.448;2022-10-19T10:03:29;13.50;99.90
8475;DHT22;4274;52.012;8.448;2022-10-19T10:05:57;13.60;99.90
8475;DHT22;4274;52.012;8.448;2022-10-19T10:08:26;13.70;99.90
8475;DHT22;4274;52.012;8.448;2022-10-19T10:11:05;13.90;99.90
8475;DHT22;4274;52.012;8.448;2022-10-19T10:13:41;13.90;99.90
8475;DHT22;4274;52.012;8.448;2022-10-19T10:16:11;14.00;99.90
8475;DHT22;4274;52.012;8.448;2022-10-19T10:21:23;13.80;99.90
8475;DHT22;4274;52.012;8.448;2022-10-19T10:26:44;13.90;99.90
8475;DHT22;4274;52.012;8.448;2022-10-19T10:31:51;13.60;99.90
8475;DHT22;4274;52.012;8.448;2022-10-19T10:34:30;13.50;99.90
8475;DHT22;4274;52.012;8.448;2022-10-19T10:36:57;13.30;99.90
8475;DHT22;4274;52.012;8.448;2022-10-19T10:39:25;13.30;99.90
8475;DHT22;4274;52.012;8.448;2022-10-19T10:41:53;13.10;99.90
8475;DHT22;4274;52.012;8.448;2022-10-19T10:44:25;13.10;99.90
8475;DHT22;4274;52.012;8.448;2022-10-19T10:46:59;13.30;99.90
8475;DHT22;4274;52.012;8.448;2022-10-19T10:49:32;13.60;99.90
8475;DHT22;4274;52.012;8.448;2022-10-19T10:52:03;13.80;99.90
8475;DHT22;4274;52.012;8.448;2022-10-19T10:54:31;14.00;99.90
8475;DHT22;4274;52.012;8.448;2022-10-19T10:57:17;14.20;99.90
8475;DHT22;4274;52.012;8.448;2022-10-19T11:02:23;14.50;99.90
8475;DHT22;4274;52.012;8.448;2022-10-19T11:04:55;14.40;99.90
8475;DHT22;4274;52.012;8.448;2022-10-19T11:07:25;14.50;99.90
8475;DHT22;4274;52.012;8.448;2022-10-19T11:09:56;14.80;99.90
8475;DHT22;4274;52.012;8.448;2022-10-19T11:12:42;15.10;99.90
8475;DHT22;4274;52.012;8.448;2022-10-19T11:15:11;15.40;99.90
8475;DHT22;4274;52.012;8.448;2022-10-19T11:17:40;15.50;99.90
8475;DHT22;4274;52.012;8.448;2022-10-19T11:20:14;15.60;99.90
8475;DHT22;4274;52.012;8.448;2022-10-19T11:22:47;15.80;99.90
8475;DHT22;4274;52.012;8.448;2022-10-19T11:28:05;15.40;99.90
8475;DHT22;4274;52.012;8.448;2022-10-19T11:31:02;15.40;99.90
8475;DHT22;4274;52.012;8.448;2022-10-19T11:33:49;15.70;99.90
8475;DHT22;4274;52.012;8.448;2022-10-19T11:39:17;16.80;99.90
8475;DHT22;4274;52.012;8.448;2022-10-19T11:42:07;16.60;99.90
8475;DHT22;4274;52.012;8.448;2022-10-19T11:48:53;15.60;99.90
8475;DHT22;4274;52.012;8.448;2022-10-19T11:54:08;16.00;99.90
8475;DHT22;4274;52.012;8.448;2022-10-19T11:59:56;17.50;99.90
8475;DHT22;4274;52.012;8.448;2022-10-19T12:11:23;17.80;99.90
8475;DHT22;4274;52.012;8.448;2022-10-19T12:13:56;17.70;99.90
8475;DHT22;4274;52.012;8.448;2022-10-19T12:16:34;17.30;99.90
8475;DHT22;4274;52.012;8.448;2022-10-19T12:19:03;16.90;99.90
8475;DHT22;4274;52.012;8.448;2022-10-19T12:21:38;16.50;99.90
8475;DHT22;4274;52.012;8.448;2022-10-19T12:24:12;16.70;99.90
8475;DHT22;4274;52.012;8.448;2022-10-19T12:26:39;16.70;99.90
8475;DHT22;4274;52.012;8.448;2022-10-19T12:29:14;16.40;99.90
8475;DHT22;4274;52.012;8.448;2022-10-19T12:31:40;16.10;99.90
8475;DHT22;4274;52.012;8.448;2022-10-19T12:37:14;16.90;99.90
8475;DHT22;4274;52.012;8.448;2022-10-19T12:39:52;17.50;99.90
8475;DHT22;4274;52.012;8.448;2022-10-19T12:47:39;18.10;99.90
8475;DHT22;4274;52.012;8.448;2022-10-19T12:50:05;18.50;99.90
8475;DHT22;4274;52.012;8.448;2022-10-19T12:52:42;18.60;99.90
8475;DHT22;4274;52.012;8.448;2022-10-19T12:55:30;18.60;99.90
8475;DHT22;4274;52.012;8.448;2022-10-19T12:58:03;18.60;99.90
8475;DHT22;4274;52.012;8.448;2022-10-19T13:00:35;18.70;99.90
8475;DHT22;4274;52.012;8.448;2022-10-19T13:05:33;19.50;99.90
8475;DHT22;4274;52.012;8.448;2022-10-19T13:08:02;19.10;99.90
8475;DHT22;4274;52.012;8.448;2022-10-19T13:10:30;18.60;99.90
8475;DHT22;4274;52.012;8.448;2022-10-19T13:12:56;18.50;99.90
8475;DHT22;4274;52.012;8.448;2022-10-19T13:18:10;18.60;99.90
8475;DHT22;4274;52.012;8.448;2022-10-19T13:25:31;18.60;99.90
8475;DHT22;4274;52.012;8.448;2022-10-19T13:38:46;16.30;99.90
8475;DHT22;4274;52.012;8.448;2022-10-19T13:49:37;15.70;99.90
8475;DHT22;4274;52.012;8.448;2022-10-19T13:55:31;14.90;99.90
8475;DHT22;4274;52.012;8.448;2022-10-19T13:58:07;14.80;99.90
8475;DHT22;4274;52.012;8.448;2022-10-19T14:01:06;15.20;99.90
8475;DHT22;4274;52.012;8.448;2022-10-19T14:11:39;15.30;99.90
8475;DHT22;4274;52.012;8.448;2022-10-19T14:16:47;14.70;99.90
8475;DHT22;4274;52.012;8.448;2022-10-19T14:19:26;14.50;99.90
8475;DHT22;4274;52.012;8.448;2022-10-19T14:21:54;14.30;99.90
8475;DHT22;4274;52.012;8.448;2022-10-19T14:24:29;14.20;99.90
8475;DHT22;4274;52.012;8.448;2022-10-19T14:26:55;14.10;99.90
8475;DHT22;4274;52.012;8.448;2022-10-19T14:29:21;14.00;99.90
8475;DHT22;4274;52.012;8.448;2022-10-19T14:31:47;13.90;99.90
8475;DHT22;4274;52.012;8.448;2022-10-19T14:34:13;13.80;99.90
8475;DHT22;4274;52.012;8.448;2022-10-19T14:36:46;13.70;99.90
8475;DHT22;4274;52.012;8.448;2022-10-19T14:42:38;13.40;99.90
8475;DHT22;4274;52.012;8.448;2022-10-19T14:45:13;13.20;99.90
8475;DHT22;4274;52.012;8.448;2022-10-19T14:47:54;13.20;99.90
8475;DHT22;4274;52.012;8.448;2022-10-19T14:50:23;13.00;99.90
8475;DHT22;4274;52.012;8.448;2022-10-19T14:52:54;12.90;99.90
8475;DHT22;4274;52.012;8.448;2022-10-19T14:55:21;12.90;99.90
8475;DHT22;4274;52.012;8.448;2022-10-19T14:57:48;12.80;99.90
8475;DHT22;4274;52.012;8.448;2022-10-19T15:00:22;12.80;99.90
8475;DHT22;4274;52.012;8.448;2022-10-19T15:03:03;12.80;99.90
8475;DHT22;4274;52.012;8.448;2022-10-19T15:05:35;12.90;99.90
8475;DHT22;4274;52.012;8.448;2022-10-19T15:08:14;12.90;99.90
8475;DHT22;4274;52.012;8.448;2022-10-19T15:10:43;12.80;99.90
8475;DHT22;4274;52.012;8.448;2022-10-19T15:13:22;12.90;99.90
8475;DHT22;4274;52.012;8.448;2022-10-19T15:15:51;12.80;99.90
8475;DHT22;4274;52.012;8.448;2022-10-19T15:18:18;12.80;99.90
8475;DHT22;4274;52.012;8.448;2022-10-19T15:20:45;12.70;99.90
8475;DHT22;4274;52.012;8.448;2022-10-19T15:23:36;12.60;99.90
8475;DHT22;4274;52.012;8.448;2022-10-19T15:28:43;12.50;99.90
8475;DHT22;4274;52.012;8.448;2022-10-19T15:33:50;12.40;99.90
8475;DHT22;4274;52.012;8.448;2022-10-19T15:36:16;12.30;99.90
8475;DHT22;4274;52.012;8.448;2022-10-19T15:38:58;12.10;99.90
8475;DHT22;4274;52.012;8.448;2022-10-19T15:41:37;12.10;99.90
8475;DHT22;4274;52.012;8.448;2022-10-19T15:44:05;12.10;99.90
8475;DHT22;4274;52.012;8.448;2022-10-19T15:47:20;12.00;99.90
8475;DHT22;4274;52.012;8.448;2022-10-19T15:51:57;11.90;99.90
8475;DHT22;4274;52.012;8.448;2022-10-19T15:54:23;11.80;99.90
8475;DHT22;4274;52.012;8.448;2022-10-19T15:56:51;11.70;99.90
8475;DHT22;4274;52.012;8.448;2022-10-19T15:59:19;11.70;99.90
8475;DHT22;4274;52.012;8.448;2022-10-19T16:01:46;11.60;99.90
8475;DHT22;4274;52.012;8.448;2022-10-19T16:04:15;11.60;99.90
8475;DHT22;4274;52.012;8.448;2022-10-19T16:06:43;11.50;99.90
8475;DHT22;4274;52.012;8.448;2022-10-19T16:09:16;11.40;99.90
8475;DHT22;4274;52.012;8.448;2022-10-19T16:11:42;11.40;99.90
8475;DHT22;4274;52.012;8.448;2022-10-19T16:14:08;11.30;99.90
8475;DHT22;4274;52.012;8.448;2022-10-19T16:16:33;11.20;99.90
8475;DHT22;4274;52.012;8.448;2022-10-19T16:18:59;11.10;99.90
8475;DHT22;4274;52.012;8.448;2022-10-19T16:21:29;11.10;99.90
8475;DHT22;4274;52.012;8.448;2022-10-19T16:23:55;11.00;99.90
8475;DHT22;4274;52.012;8.448;2022-10-19T16:26:21;10.90;99.90
8475;DHT22;4274;52.012;8.448;2022-10-19T16:28:47;10.80;99.90
8475;DHT22;4274;52.012;8.448;2022-10-19T16:31:13;10.70;99.90
8475;DHT22;4274;52.012;8.448;2022-10-19T16:33:39;10.70;99.90
8475;DHT22;4274;52.012;8.448;2022-10-19T16:36:05;10.70;99.90
8475;DHT22;4274;52.012;8.448;2022-10-19T16:38:32;10.60;99.90
8475;DHT22;4274;52.012;8.448;2022-10-19T16:41:04;10.50;99.90
8475;DHT22;4274;52.012;8.448;2022-10-19T16:43:30;10.50;99.90
8475;DHT22;4274;52.012;8.448;2022-10-19T16:45:56;10.50;99.90
8475;DHT22;4274;52.012;8.448;2022-10-19T16:48:22;10.40;99.90
8475;DHT22;4274;52.012;8.448;2022-10-19T16:53:36;10.40;99.90
8475;DHT22;4274;52.012;8.448;2022-10-19T16:56:10;10.40;99.90
8475;DHT22;4274;52.012;8.448;2022-10-19T16:58:37;10.30;99.90
8475;DHT22;4274;52.012;8.448;2022-10-19T17:01:07;10.30;99.90
8475;DHT22;4274;52.012;8.448;2022-10-19T17:03:32;10.20;99.90
8475;DHT22;4274;52.012;8.448;2022-10-19T17:06:04;10.20;99.90
8475;DHT22;4274;52.012;8.448;2022-10-19T17:08:30;10.10;99.90
8475;DHT22;4274;52.012;8.448;2022-10-19T17:10:56;10.10;99.90
8475;DHT22;4274;52.012;8.448;2022-10-19T17:13:22;10.10;99.90
8475;DHT22;4274;52.012;8.448;2022-10-19T17:15:48;10.10;99.90
8475;DHT22;4274;52.012;8.448;2022-10-19T17:18:13;10.10;99.90
8475;DHT22;4274;52.012;8.448;2022-10-19T17:20:39;10.10;99.90
8475;DHT22;4274;52.012;8.448;2022-10-19T17:23:04;10.10;99.90
8475;DHT22;4274;52.012;8.448;2022-10-19T17:25:30;10.20;99.90
8475;DHT22;4274;52.012;8.448;2022-10-19T17:27:56;10.20;99.90
8475;DHT22;4274;52.012;8.448;2022-10-19T17:30:21;10.20;99.90
8475;DHT22;4274;52.012;8.448;2022-10-19T17:32:47;10.10;99.90
8475;DHT22;4274;52.012;8.448;2022-10-19T17:35:12;10.20;99.90
8475;DHT22;4274;52.012;8.448;2022-10-19T17:37:38;10.20;99.90
8475;DHT22;4274;52.012;8.448;2022-10-19T17:40:04;10.20;99.90
8475;DHT22;4274;52.012;8.448;2022-10-19T17:42:29;10.20;99.90
8475;DHT22;4274;52.012;8.448;2022-10-19T17:44:56;10.20;99.90
8475;DHT22;4274;52.012;8.448;2022-10-19T17:47:22;10.20;99.90
8475;DHT22;4274;52.012;8.448;2022-10-19T17:49:47;10.10;99.90
8475;DHT22;4274;52.012;8.448;2022-10-19T17:52:13;10.10;99.90
8475;DHT22;4274;52.012;8.448;2022-10-19T17:54:38;10.20;99.90
8475;DHT22;4274;52.012;8.448;2022-10-19T17:57:04;10.10;99.90
8475;DHT22;4274;52.012;8.448;2022-10-19T17:59:29;10.10;99.90
8475;DHT22;4274;52.012;8.448;2022-10-19T18:01:55;10.00;99.90
8475;DHT22;4274;52.012;8.448;2022-10-19T18:04:20;10.00;99.90
8475;DHT22;4274;52.012;8.448;2022-10-19T18:06:46;10.00;99.90
8475;DHT22;4274;52.012;8.448;2022-10-19T18:09:11;9.90;99.90
8475;DHT22;4274;52.012;8.448;2022-10-19T18:11:42;9.90;99.90
8475;DHT22;4274;52.012;8.448;2022-10-19T18:14:10;9.80;99.90
8475;DHT22;4274;52.012;8.448;2022-10-19T18:16:44;9.80;99.90
8475;DHT22;4274;52.012;8.448;2022-10-19T18:19:14;9.80;99.90
8475;DHT22;4274;52.012;8.448;2022-10-19T18:21:43;9.80;99.90
8475;DHT22;4274;52.012;8.448;2022-10-19T18:24:13;9.70;99.90
8475;DHT22;4274;52.012;8.448;2022-10-19T18:26:41;9.70;99.90
8475;DHT22;4274;52.012;8.448;2022-10-19T18:29:10;9.80;99.90
8475;DHT22;4274;52.012;8.448;2022-10-19T18:31:37;9.80;99.90
8475;DHT22;4274;52.012;8.448;2022-10-19T18:34:05;9.70;99.90